sensor_id;sensor_type;location;lat;lon;timestamp;P1;durP1;ratioP1;P2;durP2;ratioP2
8594;SDS011;4335;48.860;9.198;2023-02-04T00:01:08;4.67;;;4.20;;
8594;SDS011;4335;48.860;9.198;2023-02-04T00:03:34;5.67;;;4.27;;
8594;SDS011;4335;48.860;9.198;2023-02-04T00:06:01;6.17;;;4.23;;
8594;SDS011;4335;48.860;9.198;2023-02-04T00:08:28;4.73;;;4.23;;
8594;SDS011;4335;48.860;9.198;2023-02-04T00:10:55;5.07;;;4.27;;
8594;SDS011;4335;48.860;9.198;2023-02-04T00:13:22;4.83;;;3.93;;
8594;SDS011;4335;48.860;9.198;2023-02-04T00:15:48;4.60;;;4.10;;
8594;SDS011;4335;48.860;9.198;2023-02-04T00:18:15;4.03;;;3.40;;
8594;SDS011;4335;48.860;9.198;2023-02-04T00:20:41;4.27;;;3.90;;
8594;SDS011;4335;48.860;9.198;2023-02-04T00:23:08;4.80;;;4.30;;
8594;SDS011;4335;48.860;9.198;2023-02-04T00:25:35;5.13;;;4.40;;
8594;SDS011;4335;48.860;9.198;2023-02-04T00:28:05;5.10;;;4.60;;
8594;SDS011;4335;48.860;9.198;2023-02-04T00:30:32;5.13;;;3.90;;
8594;SDS011;4335;48.860;9.198;2023-02-04T00:32:58;6.33;;;4.20;;
8594;SDS011;4335;48.860;9.198;2023-02-04T00:35:25;4.77;;;4.27;;
8594;SDS011;4335;48.860;9.198;2023-02-04T00:37:52;3.80;;;3.40;;
8594;SDS011;4335;48.860;9.198;2023-02-04T00:40:18;4.33;;;3.20;;
8594;SDS011;4335;48.860;9.198;2023-02-04T00:42:45;4.93;;;2.80;;
8594;SDS011;4335;48.860;9.198;2023-02-04T00:45:15;3.63;;;3.30;;
8594;SDS011;4335;48.860;9.198;2023-02-04T00:47:45;4.07;;;2.80;;
8594;SDS011;4335;48.860;9.198;2023-02-04T00:50:12;3.57;;;2.97;;
8594;SDS011;4335;48.860;9.198;2023-02-04T00:52:38;3.93;;;3.20;;
8594;SDS011;4335;48.860;9.198;2023-02-04T00:55:11;3.13;;;2.53;;
8594;SDS011;4335;48.860;9.198;2023-02-04T00:57:39;3.43;;;3.03;;
8594;SDS011;4335;48.860;9.198;2023-02-04T01:00:09;4.30;;;3.30;;
8594;SDS011;4335;48.860;9.198;2023-02-04T01:02:38;3.70;;;2.73;;
8594;SDS011;4335;48.860;9.198;2023-02-04T01:05:05;4.23;;;3.23;;
8594;SDS011;4335;48.860;9.198;2023-02-04T01:07:32;4.97;;;3.23;;
8594;SDS011;4335;48.860;9.198;2023-02-04T01:09:59;3.90;;;3.50;;
8594;SDS011;4335;48.860;9.198;2023-02-04T01:12:29;5.43;;;3.03;;
8594;SDS011;4335;48.860;9.198;2023-02-04T01:14:58;6.00;;;3.20;;
8594;SDS011;4335;48.860;9.198;2023-02-04T01:17:25;4.37;;;3.67;;
8594;SDS011;4335;48.860;9.198;2023-02-04T01:19:53;5.63;;;4.30;;
8594;SDS011;4335;48.860;9.198;2023-02-04T01:22:19;5.10;;;3.93;;
8594;SDS011;4335;48.860;9.198;2023-02-04T01:24:46;3.40;;;3.10;;
8594;SDS011;4335;48.860;9.198;2023-02-04T01:27:14;3.37;;;2.97;;
8594;SDS011;4335;48.860;9.198;2023-02-04T01:29:41;3.13;;;2.50;;
8594;SDS011;4335;48.860;9.198;2023-02-04T01:32:08;4.10;;;3.07;;
8594;SDS011;4335;48.860;9.198;2023-02-04T01:34:35;4.37;;;3.57;;
8594;SDS011;4335;48.860;9.198;2023-02-04T01:37:03;3.43;;;2.67;;
8594;SDS011;4335;48.860;9.198;2023-02-04T01:39:29;3.83;;;3.00;;
8594;SDS011;4335;48.860;9.198;2023-02-04T01:41:58;6.43;;;3.73;;
8594;SDS011;4335;48.860;9.198;2023-02-04T01:44:25;6.27;;;3.50;;
8594;SDS011;4335;48.860;9.198;2023-02-04T01:46:52;5.00;;;3.33;;
8594;SDS011;4335;48.860;9.198;2023-02-04T01:49:23;4.27;;;3.27;;
8594;SDS011;4335;48.860;9.198;2023-02-04T01:51:50;4.40;;;2.83;;
8594;SDS011;4335;48.860;9.198;2023-02-04T01:54:20;3.00;;;2.60;;
8594;SDS011;4335;48.860;9.198;2023-02-04T01:56:49;2.93;;;2.60;;
8594;SDS011;4335;48.860;9.198;2023-02-04T01:59:21;2.53;;;2.33;;
8594;SDS011;4335;48.860;9.198;2023-02-04T02:01:48;4.07;;;2.30;;
8594;SDS011;4335;48.860;9.198;2023-02-04T02:04:17;3.50;;;2.17;;
8594;SDS011;4335;48.860;9.198;2023-02-04T02:06:46;2.33;;;1.90;;
8594;SDS011;4335;48.860;9.198;2023-02-04T02:09:14;5.20;;;2.50;;
8594;SDS011;4335;48.860;9.198;2023-02-04T02:11:42;5.27;;;2.73;;
8594;SDS011;4335;48.860;9.198;2023-02-04T02:14:09;2.70;;;2.03;;
8594;SDS011;4335;48.860;9.198;2023-02-04T02:16:36;3.27;;;1.80;;
8594;SDS011;4335;48.860;9.198;2023-02-04T02:19:03;3.33;;;2.77;;
8594;SDS011;4335;48.860;9.198;2023-02-04T02:21:39;3.57;;;2.00;;
8594;SDS011;4335;48.860;9.198;2023-02-04T02:24:25;2.80;;;2.20;;
8594;SDS011;4335;48.860;9.198;2023-02-04T02:26:53;3.40;;;1.90;;
8594;SDS011;4335;48.860;9.198;2023-02-04T02:29:21;6.03;;;2.47;;
8594;SDS011;4335;48.860;9.198;2023-02-04T02:31:48;3.77;;;2.13;;
8594;SDS011;4335;48.860;9.198;2023-02-04T02:34:15;2.93;;;2.30;;
8594;SDS011;4335;48.860;9.198;2023-02-04T02:36:45;3.93;;;2.30;;
8594;SDS011;4335;48.860;9.198;2023-02-04T02:39:12;4.27;;;2.30;;
8594;SDS011;4335;48.860;9.198;2023-02-04T02:41:39;5.40;;;1.97;;
8594;SDS011;4335;48.860;9.198;2023-02-04T02:44:07;6.27;;;2.40;;
8594;SDS011;4335;48.860;9.198;2023-02-04T02:46:35;6.37;;;2.47;;
8594;SDS011;4335;48.860;9.198;2023-02-04T02:49:01;5.83;;;2.20;;
8594;SDS011;4335;48.860;9.198;2023-02-04T02:51:30;6.40;;;2.23;;
8594;SDS011;4335;48.860;9.198;2023-02-04T02:53:57;7.83;;;2.33;;
8594;SDS011;4335;48.860;9.198;2023-02-04T02:56:24;7.10;;;2.20;;
8594;SDS011;4335;48.860;9.198;2023-02-04T02:58:52;4.87;;;2.57;;
8594;SDS011;4335;48.860;9.198;2023-02-04T03:01:18;6.13;;;3.27;;
8594;SDS011;4335;48.860;9.198;2023-02-04T03:03:46;8.23;;;2.73;;
8594;SDS011;4335;48.860;9.198;2023-02-04T03:06:15;6.13;;;2.10;;
8594;SDS011;4335;48.860;9.198;2023-02-04T03:08:45;6.80;;;2.30;;
8594;SDS011;4335;48.860;9.198;2023-02-04T03:11:16;5.10;;;2.10;;
8594;SDS011;4335;48.860;9.198;2023-02-04T03:13:42;5.10;;;2.77;;
8594;SDS011;4335;48.860;9.198;2023-02-04T03:16:10;6.80;;;3.03;;
8594;SDS011;4335;48.860;9.198;2023-02-04T03:18:37;6.93;;;2.40;;
8594;SDS011;4335;48.860;9.198;2023-02-04T03:21:04;4.13;;;2.30;;
8594;SDS011;4335;48.860;9.198;2023-02-04T03:23:32;8.40;;;2.50;;
8594;SDS011;4335;48.860;9.198;2023-02-04T03:26:00;6.40;;;3.03;;
8594;SDS011;4335;48.860;9.198;2023-02-04T03:28:29;7.67;;;3.07;;
8594;SDS011;4335;48.860;9.198;2023-02-04T03:30:56;6.90;;;2.90;;
8594;SDS011;4335;48.860;9.198;2023-02-04T03:33:25;7.60;;;2.80;;
8594;SDS011;4335;48.860;9.198;2023-02-04T03:35:55;4.37;;;2.47;;
8594;SDS011;4335;48.860;9.198;2023-02-04T03:38:22;8.73;;;3.03;;
8594;SDS011;4335;48.860;9.198;2023-02-04T03:40:49;7.00;;;2.43;;
8594;SDS011;4335;48.860;9.198;2023-02-04T03:43:16;7.90;;;2.53;;
8594;SDS011;4335;48.860;9.198;2023-02-04T03:45:46;4.17;;;2.07;;
8594;SDS011;4335;48.860;9.198;2023-02-04T03:48:12;3.63;;;2.30;;
8594;SDS011;4335;48.860;9.198;2023-02-04T03:50:43;5.70;;;2.40;;
8594;SDS011;4335;48.860;9.198;2023-02-04T03:53:10;6.27;;;1.93;;
8594;SDS011;4335;48.860;9.198;2023-02-04T03:55:40;5.57;;;2.30;;
8594;SDS011;4335;48.860;9.198;2023-02-04T03:58:06;6.87;;;1.93;;
8594;SDS011;4335;48.860;9.198;2023-02-04T04:00:33;2.57;;;1.87;;
8594;SDS011;4335;48.860;9.198;2023-02-04T04:03:00;2.60;;;2.00;;
8594;SDS011;4335;48.860;9.198;2023-02-04T04:05:26;4.73;;;2.20;;
8594;SDS011;4335;48.860;9.198;2023-02-04T04:07:54;5.37;;;2.30;;
8594;SDS011;4335;48.860;9.198;2023-02-04T04:10:21;5.67;;;2.30;;
8594;SDS011;4335;48.860;9.198;2023-02-04T04:12:47;6.20;;;2.50;;
8594;SDS011;4335;48.860;9.198;2023-02-04T04:15:14;5.13;;;2.53;;
8594;SDS011;4335;48.860;9.198;2023-02-04T04:17:44;6.83;;;2.50;;
8594;SDS011;4335;48.860;9.198;2023-02-04T04:20:11;4.73;;;2.10;;
8594;SDS011;4335;48.860;9.198;2023-02-04T04:22:38;9.93;;;2.40;;
8594;SDS011;4335;48.860;9.198;2023-02-04T04:25:06;6.90;;;2.10;;
8594;SDS011;4335;48.860;9.198;2023-02-04T04:27:33;8.97;;;3.10;;
8594;SDS011;4335;48.860;9.198;2023-02-04T04:30:00;5.60;;;2.43;;
8594;SDS011;4335;48.860;9.198;2023-02-04T04:32:27;4.43;;;2.10;;
8594;SDS011;4335;48.860;9.198;2023-02-04T04:34:53;4.63;;;2.80;;
8594;SDS011;4335;48.860;9.198;2023-02-04T04:37:29;5.20;;;2.90;;
8594;SDS011;4335;48.860;9.198;2023-02-04T04:39:55;6.17;;;2.73;;
8594;SDS011;4335;48.860;9.198;2023-02-04T04:42:23;5.63;;;2.37;;
8594;SDS011;4335;48.860;9.198;2023-02-04T04:44:49;6.90;;;2.43;;
8594;SDS011;4335;48.860;9.198;2023-02-04T04:47:16;6.73;;;1.93;;
8594;SDS011;4335;48.860;9.198;2023-02-04T04:49:47;6.20;;;2.37;;
8594;SDS011;4335;48.860;9.198;2023-02-04T04:52:14;6.27;;;2.53;;
8594;SDS011;4335;48.860;9.198;2023-02-04T04:54:43;4.90;;;2.70;;
8594;SDS011;4335;48.860;9.198;2023-02-04T04:57:10;5.23;;;2.60;;
8594;SDS011;4335;48.860;9.198;2023-02-04T04:59:37;8.47;;;2.80;;
8594;SDS011;4335;48.860;9.198;2023-02-04T05:02:07;6.20;;;2.73;;
8594;SDS011;4335;48.860;9.198;2023-02-04T05:04:46;5.07;;;2.13;;
8594;SDS011;4335;48.860;9.198;2023-02-04T05:07:12;7.50;;;2.80;;
8594;SDS011;4335;48.860;9.198;2023-02-04T05:09:39;6.13;;;2.60;;
8594;SDS011;4335;48.860;9.198;2023-02-04T05:12:06;7.37;;;2.77;;
8594;SDS011;4335;48.860;9.198;2023-02-04T05:14:35;6.30;;;2.77;;
8594;SDS011;4335;48.860;9.198;2023-02-04T05:17:06;5.67;;;2.87;;
8594;SDS011;4335;48.860;9.198;2023-02-04T05:19:38;6.00;;;2.27;;
8594;SDS011;4335;48.860;9.198;2023-02-04T05:22:11;9.20;;;2.63;;
8594;SDS011;4335;48.860;9.198;2023-02-04T05:24:38;6.37;;;2.80;;
8594;SDS011;4335;48.860;9.198;2023-02-04T05:27:04;6.77;;;3.20;;
8594;SDS011;4335;48.860;9.198;2023-02-04T05:29:31;5.33;;;2.57;;
8594;SDS011;4335;48.860;9.198;2023-02-04T05:31:58;5.43;;;2.73;;
8594;SDS011;4335;48.860;9.198;2023-02-04T05:34:25;6.10;;;3.23;;
8594;SDS011;4335;48.860;9.198;2023-02-04T05:36:52;5.50;;;3.10;;
8594;SDS011;4335;48.860;9.198;2023-02-04T05:39:18;5.00;;;3.17;;
8594;SDS011;4335;48.860;9.198;2023-02-04T05:41:45;5.73;;;2.90;;
8594;SDS011;4335;48.860;9.198;2023-02-04T05:44:12;5.53;;;3.50;;
8594;SDS011;4335;48.860;9.198;2023-02-04T05:46:45;6.40;;;3.37;;
8594;SDS011;4335;48.860;9.198;2023-02-04T05:49:12;7.30;;;3.77;;
8594;SDS011;4335;48.860;9.198;2023-02-04T05:51:39;8.17;;;3.27;;
8594;SDS011;4335;48.860;9.198;2023-02-04T05:54:08;7.00;;;4.00;;
8594;SDS011;4335;48.860;9.198;2023-02-04T05:56:35;7.27;;;3.40;;
8594;SDS011;4335;48.860;9.198;2023-02-04T05:59:02;6.60;;;3.40;;
8594;SDS011;4335;48.860;9.198;2023-02-04T06:01:28;6.73;;;4.03;;
8594;SDS011;4335;48.860;9.198;2023-02-04T06:03:58;7.60;;;3.90;;
8594;SDS011;4335;48.860;9.198;2023-02-04T06:06:28;8.80;;;4.00;;
8594;SDS011;4335;48.860;9.198;2023-02-04T06:08:55;6.63;;;3.63;;
8594;SDS011;4335;48.860;9.198;2023-02-04T06:11:22;9.30;;;4.10;;
8594;SDS011;4335;48.860;9.198;2023-02-04T06:13:55;10.33;;;5.17;;
8594;SDS011;4335;48.860;9.198;2023-02-04T06:16:23;8.97;;;5.03;;
8594;SDS011;4335;48.860;9.198;2023-02-04T06:18:53;8.03;;;3.93;;
8594;SDS011;4335;48.860;9.198;2023-02-04T06:21:25;8.67;;;4.17;;
8594;SDS011;4335;48.860;9.198;2023-02-04T06:23:53;10.27;;;5.33;;
8594;SDS011;4335;48.860;9.198;2023-02-04T06:26:22;7.10;;;4.63;;
8594;SDS011;4335;48.860;9.198;2023-02-04T06:28:49;6.13;;;4.07;;
8594;SDS011;4335;48.860;9.198;2023-02-04T06:31:19;8.37;;;3.47;;
8594;SDS011;4335;48.860;9.198;2023-02-04T06:33:49;8.80;;;3.93;;
8594;SDS011;4335;48.860;9.198;2023-02-04T06:36:15;7.60;;;4.60;;
8594;SDS011;4335;48.860;9.198;2023-02-04T06:38:42;7.97;;;4.00;;
8594;SDS011;4335;48.860;9.198;2023-02-04T06:41:12;9.47;;;4.10;;
8594;SDS011;4335;48.860;9.198;2023-02-04T06:43:39;6.87;;;4.00;;
8594;SDS011;4335;48.860;9.198;2023-02-04T06:46:06;8.53;;;4.83;;
8594;SDS011;4335;48.860;9.198;2023-02-04T06:48:38;10.30;;;4.07;;
8594;SDS011;4335;48.860;9.198;2023-02-04T06:51:05;11.40;;;4.27;;
8594;SDS011;4335;48.860;9.198;2023-02-04T06:53:32;6.17;;;4.30;;
8594;SDS011;4335;48.860;9.198;2023-02-04T06:56:01;8.13;;;3.90;;
8594;SDS011;4335;48.860;9.198;2023-02-04T06:58:32;9.20;;;4.73;;
8594;SDS011;4335;48.860;9.198;2023-02-04T07:01:01;8.37;;;3.83;;
8594;SDS011;4335;48.860;9.198;2023-02-04T07:03:28;9.30;;;4.87;;
8594;SDS011;4335;48.860;9.198;2023-02-04T07:05:54;11.37;;;4.70;;
8594;SDS011;4335;48.860;9.198;2023-02-04T07:08:24;10.30;;;5.20;;
8594;SDS011;4335;48.860;9.198;2023-02-04T07:10:57;10.23;;;4.70;;
8594;SDS011;4335;48.860;9.198;2023-02-04T07:13:24;10.23;;;4.00;;
8594;SDS011;4335;48.860;9.198;2023-02-04T07:15:51;10.43;;;4.80;;
8594;SDS011;4335;48.860;9.198;2023-02-04T07:18:18;9.70;;;4.73;;
8594;SDS011;4335;48.860;9.198;2023-02-04T07:20:44;9.93;;;4.77;;
8594;SDS011;4335;48.860;9.198;2023-02-04T07:23:11;13.53;;;5.20;;
8594;SDS011;4335;48.860;9.198;2023-02-04T07:25:38;28.97;;;25.83;;
8594;SDS011;4335;48.860;9.198;2023-02-04T07:28:04;11.57;;;8.20;;
8594;SDS011;4335;48.860;9.198;2023-02-04T07:30:31;14.23;;;5.80;;
8594;SDS011;4335;48.860;9.198;2023-02-04T07:33:02;9.77;;;4.93;;
8594;SDS011;4335;48.860;9.198;2023-02-04T07:35:31;12.60;;;5.20;;
8594;SDS011;4335;48.860;9.198;2023-02-04T07:37:58;11.07;;;5.03;;
8594;SDS011;4335;48.860;9.198;2023-02-04T07:40:25;7.17;;;4.60;;
8594;SDS011;4335;48.860;9.198;2023-02-04T07:42:52;10.43;;;4.40;;
8594;SDS011;4335;48.860;9.198;2023-02-04T07:45:21;9.93;;;4.40;;
8594;SDS011;4335;48.860;9.198;2023-02-04T07:47:48;10.63;;;4.03;;
8594;SDS011;4335;48.860;9.198;2023-02-04T07:50:18;10.80;;;3.80;;
8594;SDS011;4335;48.860;9.198;2023-02-04T07:52:45;7.53;;;4.77;;
8594;SDS011;4335;48.860;9.198;2023-02-04T07:55:12;11.07;;;4.67;;
8594;SDS011;4335;48.860;9.198;2023-02-04T07:57:44;10.83;;;4.97;;
8594;SDS011;4335;48.860;9.198;2023-02-04T08:00:12;11.77;;;4.90;;
8594;SDS011;4335;48.860;9.198;2023-02-04T08:02:49;10.17;;;4.43;;
8594;SDS011;4335;48.860;9.198;2023-02-04T08:05:22;7.90;;;4.17;;
8594;SDS011;4335;48.860;9.198;2023-02-04T08:07:49;9.50;;;4.00;;
8594;SDS011;4335;48.860;9.198;2023-02-04T08:10:22;7.33;;;4.30;;
8594;SDS011;4335;48.860;9.198;2023-02-04T08:12:48;11.90;;;4.50;;
8594;SDS011;4335;48.860;9.198;2023-02-04T08:15:15;10.20;;;4.00;;
8594;SDS011;4335;48.860;9.198;2023-02-04T08:17:44;11.90;;;4.17;;
8594;SDS011;4335;48.860;9.198;2023-02-04T08:20:14;11.90;;;4.20;;
8594;SDS011;4335;48.860;9.198;2023-02-04T08:22:43;9.40;;;3.67;;
8594;SDS011;4335;48.860;9.198;2023-02-04T08:25:10;8.53;;;4.33;;
8594;SDS011;4335;48.860;9.198;2023-02-04T08:27:37;11.80;;;4.57;;
8594;SDS011;4335;48.860;9.198;2023-02-04T08:30:04;9.80;;;4.30;;
8594;SDS011;4335;48.860;9.198;2023-02-04T08:32:32;14.47;;;5.10;;
8594;SDS011;4335;48.860;9.198;2023-02-04T08:34:58;11.87;;;4.90;;
8594;SDS011;4335;48.860;9.198;2023-02-04T08:37:25;11.60;;;5.43;;
8594;SDS011;4335;48.860;9.198;2023-02-04T08:39:53;13.20;;;4.97;;
8594;SDS011;4335;48.860;9.198;2023-02-04T08:42:20;9.83;;;4.53;;
8594;SDS011;4335;48.860;9.198;2023-02-04T08:44:47;8.47;;;4.63;;
8594;SDS011;4335;48.860;9.198;2023-02-04T08:47:16;11.43;;;5.17;;
8594;SDS011;4335;48.860;9.198;2023-02-04T08:49:49;16.27;;;5.07;;
8594;SDS011;4335;48.860;9.198;2023-02-04T08:52:16;9.73;;;5.47;;
8594;SDS011;4335;48.860;9.198;2023-02-04T08:54:43;10.17;;;4.93;;
8594;SDS011;4335;48.860;9.198;2023-02-04T08:57:10;8.60;;;5.00;;
8594;SDS011;4335;48.860;9.198;2023-02-04T08:59:37;12.53;;;5.47;;
8594;SDS011;4335;48.860;9.198;2023-02-04T09:02:07;8.53;;;4.80;;
8594;SDS011;4335;48.860;9.198;2023-02-04T09:04:34;13.50;;;5.47;;
8594;SDS011;4335;48.860;9.198;2023-02-04T09:07:01;7.27;;;4.93;;
8594;SDS011;4335;48.860;9.198;2023-02-04T09:09:28;11.63;;;5.30;;
8594;SDS011;4335;48.860;9.198;2023-02-04T09:11:55;9.23;;;5.03;;
8594;SDS011;4335;48.860;9.198;2023-02-04T09:14:22;8.57;;;4.27;;
8594;SDS011;4335;48.860;9.198;2023-02-04T09:17:00;9.77;;;6.23;;
8594;SDS011;4335;48.860;9.198;2023-02-04T09:19:26;9.37;;;5.33;;
8594;SDS011;4335;48.860;9.198;2023-02-04T09:21:53;8.20;;;4.90;;
8594;SDS011;4335;48.860;9.198;2023-02-04T09:24:25;8.97;;;5.00;;
8594;SDS011;4335;48.860;9.198;2023-02-04T09:26:52;11.97;;;5.13;;
8594;SDS011;4335;48.860;9.198;2023-02-04T09:29:22;9.50;;;5.27;;
8594;SDS011;4335;48.860;9.198;2023-02-04T09:31:50;11.17;;;5.20;;
8594;SDS011;4335;48.860;9.198;2023-02-04T09:34:16;11.27;;;6.20;;
8594;SDS011;4335;48.860;9.198;2023-02-04T09:36:44;10.93;;;5.57;;
8594;SDS011;4335;48.860;9.198;2023-02-04T09:39:10;12.03;;;5.73;;
8594;SDS011;4335;48.860;9.198;2023-02-04T09:41:41;10.33;;;5.17;;
8594;SDS011;4335;48.860;9.198;2023-02-04T09:44:11;11.70;;;6.03;;
8594;SDS011;4335;48.860;9.198;2023-02-04T09:46:41;14.70;;;7.83;;
8594;SDS011;4335;48.860;9.198;2023-02-04T09:49:13;11.00;;;5.20;;
8594;SDS011;4335;48.860;9.198;2023-02-04T09:51:40;10.07;;;4.47;;
8594;SDS011;4335;48.860;9.198;2023-02-04T09:54:11;11.60;;;5.30;;
8594;SDS011;4335;48.860;9.198;2023-02-04T09:56:38;10.13;;;5.13;;
8594;SDS011;4335;48.860;9.198;2023-02-04T09:59:09;16.33;;;6.33;;
8594;SDS011;4335;48.860;9.198;2023-02-04T10:01:38;9.80;;;4.20;;
8594;SDS011;4335;48.860;9.198;2023-02-04T10:04:08;8.23;;;3.20;;
8594;SDS011;4335;48.860;9.198;2023-02-04T10:06:37;9.10;;;3.17;;
8594;SDS011;4335;48.860;9.198;2023-02-04T10:09:04;8.17;;;2.43;;
8594;SDS011;4335;48.860;9.198;2023-02-04T10:11:33;8.80;;;3.20;;
8594;SDS011;4335;48.860;9.198;2023-02-04T10:14:05;12.67;;;3.40;;
8594;SDS011;4335;48.860;9.198;2023-02-04T10:16:38;8.90;;;2.87;;
8594;SDS011;4335;48.860;9.198;2023-02-04T10:19:11;14.63;;;3.43;;
8594;SDS011;4335;48.860;9.198;2023-02-04T10:21:40;10.90;;;3.03;;
8594;SDS011;4335;48.860;9.198;2023-02-04T10:24:09;11.50;;;3.47;;
8594;SDS011;4335;48.860;9.198;2023-02-04T10:26:39;8.40;;;3.00;;
8594;SDS011;4335;48.860;9.198;2023-02-04T10:29:07;9.67;;;3.20;;
8594;SDS011;4335;48.860;9.198;2023-02-04T10:31:41;9.37;;;2.63;;
8594;SDS011;4335;48.860;9.198;2023-02-04T10:34:12;11.90;;;3.60;;
8594;SDS011;4335;48.860;9.198;2023-02-04T10:36:46;14.97;;;4.53;;
8594;SDS011;4335;48.860;9.198;2023-02-04T10:39:14;11.27;;;3.10;;
8594;SDS011;4335;48.860;9.198;2023-02-04T10:41:46;6.67;;;3.10;;
8594;SDS011;4335;48.860;9.198;2023-02-04T10:44:17;9.83;;;2.80;;
8594;SDS011;4335;48.860;9.198;2023-02-04T10:46:50;8.07;;;3.53;;
8594;SDS011;4335;48.860;9.198;2023-02-04T10:49:24;9.37;;;2.50;;
8594;SDS011;4335;48.860;9.198;2023-02-04T10:51:51;9.30;;;3.47;;
8594;SDS011;4335;48.860;9.198;2023-02-04T10:54:19;13.77;;;4.33;;
8594;SDS011;4335;48.860;9.198;2023-02-04T10:56:57;11.10;;;2.97;;
8594;SDS011;4335;48.860;9.198;2023-02-04T10:59:25;8.90;;;2.93;;
8594;SDS011;4335;48.860;9.198;2023-02-04T11:02:01;9.40;;;3.27;;
8594;SDS011;4335;48.860;9.198;2023-02-04T11:04:52;9.20;;;2.73;;
8594;SDS011;4335;48.860;9.198;2023-02-04T11:07:19;7.27;;;3.17;;
8594;SDS011;4335;48.860;9.198;2023-02-04T11:09:47;9.53;;;3.10;;
8594;SDS011;4335;48.860;9.198;2023-02-04T11:12:18;8.10;;;3.17;;
8594;SDS011;4335;48.860;9.198;2023-02-04T11:14:53;13.17;;;3.20;;
8594;SDS011;4335;48.860;9.198;2023-02-04T11:17:20;8.83;;;3.50;;
8594;SDS011;4335;48.860;9.198;2023-02-04T11:19:54;15.13;;;3.73;;
8594;SDS011;4335;48.860;9.198;2023-02-04T11:22:22;13.17;;;4.03;;
8594;SDS011;4335;48.860;9.198;2023-02-04T11:25:00;9.40;;;3.30;;
8594;SDS011;4335;48.860;9.198;2023-02-04T11:27:36;7.87;;;3.40;;
8594;SDS011;4335;48.860;9.198;2023-02-04T11:30:18;10.07;;;3.27;;
8594;SDS011;4335;48.860;9.198;2023-02-04T11:32:59;12.17;;;2.83;;
8594;SDS011;4335;48.860;9.198;2023-02-04T11:35:28;10.60;;;3.70;;
8594;SDS011;4335;48.860;9.198;2023-02-04T11:37:58;8.83;;;3.20;;
8594;SDS011;4335;48.860;9.198;2023-02-04T11:40:26;9.17;;;3.03;;
8594;SDS011;4335;48.860;9.198;2023-02-04T11:42:59;12.10;;;3.37;;
8594;SDS011;4335;48.860;9.198;2023-02-04T11:45:28;11.77;;;3.37;;
8594;SDS011;4335;48.860;9.198;2023-02-04T11:47:57;11.37;;;3.13;;
8594;SDS011;4335;48.860;9.198;2023-02-04T11:50:27;11.90;;;3.67;;
8594;SDS011;4335;48.860;9.198;2023-02-04T11:52:56;13.33;;;3.67;;
8594;SDS011;4335;48.860;9.198;2023-02-04T11:55:30;6.47;;;2.43;;
8594;SDS011;4335;48.860;9.198;2023-02-04T11:58:01;6.90;;;2.70;;
8594;SDS011;4335;48.860;9.198;2023-02-04T12:00:28;10.40;;;3.53;;
8594;SDS011;4335;48.860;9.198;2023-02-04T12:02:56;7.23;;;3.17;;
8594;SDS011;4335;48.860;9.198;2023-02-04T12:05:35;9.33;;;3.57;;
8594;SDS011;4335;48.860;9.198;2023-02-04T12:08:11;8.37;;;3.17;;
8594;SDS011;4335;48.860;9.198;2023-02-04T12:10:46;7.77;;;2.80;;
8594;SDS011;4335;48.860;9.198;2023-02-04T12:13:17;4.57;;;2.23;;
8594;SDS011;4335;48.860;9.198;2023-02-04T12:15:57;7.27;;;2.50;;
8594;SDS011;4335;48.860;9.198;2023-02-04T12:18:25;7.80;;;2.70;;
8594;SDS011;4335;48.860;9.198;2023-02-04T12:20:53;9.37;;;2.60;;
8594;SDS011;4335;48.860;9.198;2023-02-04T12:23:21;7.60;;;2.53;;
8594;SDS011;4335;48.860;9.198;2023-02-04T12:25:47;8.73;;;2.03;;
8594;SDS011;4335;48.860;9.198;2023-02-04T12:28:14;6.67;;;2.00;;
8594;SDS011;4335;48.860;9.198;2023-02-04T12:30:41;6.30;;;2.27;;
8594;SDS011;4335;48.860;9.198;2023-02-04T12:33:11;10.07;;;2.63;;
8594;SDS011;4335;48.860;9.198;2023-02-04T12:35:38;8.33;;;3.20;;
8594;SDS011;4335;48.860;9.198;2023-02-04T12:38:08;8.23;;;2.20;;
8594;SDS011;4335;48.860;9.198;2023-02-04T12:40:35;10.07;;;3.03;;
8594;SDS011;4335;48.860;9.198;2023-02-04T12:43:03;11.57;;;3.43;;
8594;SDS011;4335;48.860;9.198;2023-02-04T12:45:30;14.70;;;2.90;;
8594;SDS011;4335;48.860;9.198;2023-02-04T12:48:00;14.67;;;3.23;;
8594;SDS011;4335;48.860;9.198;2023-02-04T12:50:27;8.60;;;2.67;;
8594;SDS011;4335;48.860;9.198;2023-02-04T12:52:55;9.30;;;3.50;;
8594;SDS011;4335;48.860;9.198;2023-02-04T12:55:24;13.20;;;4.10;;
8594;SDS011;4335;48.860;9.198;2023-02-04T12:57:52;7.73;;;3.13;;
8594;SDS011;4335;48.860;9.198;2023-02-04T13:00:20;10.73;;;3.70;;
8594;SDS011;4335;48.860;9.198;2023-02-04T13:02:47;8.57;;;3.40;;
8594;SDS011;4335;48.860;9.198;2023-02-04T13:05:15;13.47;;;3.60;;
8594;SDS011;4335;48.860;9.198;2023-02-04T13:07:42;9.60;;;3.30;;
8594;SDS011;4335;48.860;9.198;2023-02-04T13:10:09;12.23;;;3.60;;
8594;SDS011;4335;48.860;9.198;2023-02-04T13:12:38;6.77;;;3.00;;
8594;SDS011;4335;48.860;9.198;2023-02-04T13:15:06;9.13;;;3.80;;
8594;SDS011;4335;48.860;9.198;2023-02-04T13:17:36;12.37;;;3.70;;
8594;SDS011;4335;48.860;9.198;2023-02-04T13:20:04;7.60;;;2.93;;
8594;SDS011;4335;48.860;9.198;2023-02-04T13:22:32;9.50;;;3.03;;
8594;SDS011;4335;48.860;9.198;2023-02-04T13:24:59;12.37;;;3.37;;
8594;SDS011;4335;48.860;9.198;2023-02-04T13:27:29;10.43;;;3.37;;
8594;SDS011;4335;48.860;9.198;2023-02-04T13:29:59;8.50;;;3.37;;
8594;SDS011;4335;48.860;9.198;2023-02-04T13:32:26;5.77;;;2.60;;
8594;SDS011;4335;48.860;9.198;2023-02-04T13:34:53;7.33;;;2.57;;
8594;SDS011;4335;48.860;9.198;2023-02-04T13:37:20;7.43;;;3.00;;
8594;SDS011;4335;48.860;9.198;2023-02-04T13:39:47;10.30;;;3.07;;
8594;SDS011;4335;48.860;9.198;2023-02-04T13:42:17;10.87;;;4.13;;
8594;SDS011;4335;48.860;9.198;2023-02-04T13:44:47;13.27;;;2.90;;
8594;SDS011;4335;48.860;9.198;2023-02-04T13:47:18;14.23;;;3.23;;
8594;SDS011;4335;48.860;9.198;2023-02-04T13:49:48;10.37;;;3.33;;
8594;SDS011;4335;48.860;9.198;2023-02-04T13:52:15;13.77;;;3.77;;
8594;SDS011;4335;48.860;9.198;2023-02-04T13:54:42;10.17;;;3.90;;
8594;SDS011;4335;48.860;9.198;2023-02-04T13:57:09;9.50;;;3.53;;
8594;SDS011;4335;48.860;9.198;2023-02-04T13:59:36;10.03;;;2.70;;
8594;SDS011;4335;48.860;9.198;2023-02-04T14:02:03;10.17;;;3.00;;
8594;SDS011;4335;48.860;9.198;2023-02-04T14:04:30;6.07;;;2.47;;
8594;SDS011;4335;48.860;9.198;2023-02-04T14:06:57;11.13;;;4.30;;
8594;SDS011;4335;48.860;9.198;2023-02-04T14:09:26;4.97;;;2.37;;
8594;SDS011;4335;48.860;9.198;2023-02-04T14:11:53;11.03;;;3.47;;
8594;SDS011;4335;48.860;9.198;2023-02-04T14:14:20;5.33;;;2.20;;
8594;SDS011;4335;48.860;9.198;2023-02-04T14:16:46;7.90;;;3.10;;
8594;SDS011;4335;48.860;9.198;2023-02-04T14:19:13;7.77;;;2.30;;
8594;SDS011;4335;48.860;9.198;2023-02-04T14:21:40;6.40;;;2.80;;
8594;SDS011;4335;48.860;9.198;2023-02-04T14:24:07;7.83;;;2.67;;
8594;SDS011;4335;48.860;9.198;2023-02-04T14:26:34;7.73;;;2.73;;
8594;SDS011;4335;48.860;9.198;2023-02-04T14:29:01;6.50;;;2.77;;
8594;SDS011;4335;48.860;9.198;2023-02-04T14:31:29;7.73;;;3.17;;
8594;SDS011;4335;48.860;9.198;2023-02-04T14:34:00;10.63;;;2.33;;
8594;SDS011;4335;48.860;9.198;2023-02-04T14:36:26;9.73;;;3.43;;
8594;SDS011;4335;48.860;9.198;2023-02-04T14:38:57;8.27;;;3.07;;
8594;SDS011;4335;48.860;9.198;2023-02-04T14:41:27;8.57;;;2.80;;
8594;SDS011;4335;48.860;9.198;2023-02-04T14:43:55;8.13;;;2.80;;
8594;SDS011;4335;48.860;9.198;2023-02-04T14:46:22;7.90;;;3.50;;
8594;SDS011;4335;48.860;9.198;2023-02-04T14:48:48;9.47;;;2.70;;
8594;SDS011;4335;48.860;9.198;2023-02-04T14:51:16;8.03;;;3.30;;
8594;SDS011;4335;48.860;9.198;2023-02-04T14:53:43;7.60;;;3.03;;
8594;SDS011;4335;48.860;9.198;2023-02-04T14:56:17;11.30;;;3.40;;
8594;SDS011;4335;48.860;9.198;2023-02-04T14:58:44;8.03;;;3.13;;
8594;SDS011;4335;48.860;9.198;2023-02-04T15:01:10;4.37;;;2.60;;
8594;SDS011;4335;48.860;9.198;2023-02-04T15:03:41;5.13;;;2.57;;
8594;SDS011;4335;48.860;9.198;2023-02-04T15:06:07;7.00;;;2.83;;
8594;SDS011;4335;48.860;9.198;2023-02-04T15:08:34;6.07;;;2.50;;
8594;SDS011;4335;48.860;9.198;2023-02-04T15:11:01;8.37;;;3.57;;
8594;SDS011;4335;48.860;9.198;2023-02-04T15:13:29;4.73;;;2.40;;
8594;SDS011;4335;48.860;9.198;2023-02-04T15:15:56;3.70;;;1.90;;
8594;SDS011;4335;48.860;9.198;2023-02-04T15:18:25;8.30;;;1.90;;
8594;SDS011;4335;48.860;9.198;2023-02-04T15:20:52;6.57;;;2.20;;